Terminal Aerodrome Forecast
Issued by NWS

Home | Current Version | Previous Version | Text Only | Print | Product List | Glossary On
Versions: 1 2 3 4 5 6 7 8 9 10 11 12 13 14 15 16 17 18 19
000
FTUS44 KBMX 122100 AAB
TAFTCL
TAF AMD
KTCL 122108Z 1221/1318 VRB03KT P6SM VCTS SCT050CB
     FM130100 00000KT P6SM SKC
      TEMPO 1310/1312 5SM BR=

USA.gov is the U.S. government's official web portal to all federal, state and local government web resources and services.